sensor_id;sensor_type;location;lat;lon;timestamp;pressure;altitude;pressure_sealevel;temperature;humidity
78016;BME280;67223;51.102;5.882;2023-03-01T00:01:49;102821.44;;;0.30;63.78
78016;BME280;67223;51.102;5.882;2023-03-01T00:04:15;102825.00;;;0.21;63.88
78016;BME280;67223;51.102;5.882;2023-03-01T00:06:42;102828.38;;;0.37;63.52
78016;BME280;67223;51.102;5.882;2023-03-01T00:09:08;102831.13;;;0.20;64.08
78016;BME280;67223;51.102;5.882;2023-03-01T00:11:34;102828.56;;;0.11;64.33
78016;BME280;67223;51.102;5.882;2023-03-01T00:14:01;102832.13;;;0.03;64.25
78016;BME280;67223;51.102;5.882;2023-03-01T00:16:32;102837.31;;;0.12;64.90
78016;BME280;67223;51.102;5.882;2023-03-01T00:18:58;102840.91;;;0.00;64.91
78016;BME280;67223;51.102;5.882;2023-03-01T00:21:25;102838.31;;;-0.06;65.52
78016;BME280;67223;51.102;5.882;2023-03-01T00:23:51;102845.34;;;-0.14;66.11
78016;BME280;67223;51.102;5.882;2023-03-01T00:26:17;102846.16;;;-0.05;65.86
78016;BME280;67223;51.102;5.882;2023-03-01T00:28:44;102853.22;;;-0.13;66.92
78016;BME280;67223;51.102;5.882;2023-03-01T00:31:13;102836.59;;;-0.19;66.83
78016;BME280;67223;51.102;5.882;2023-03-01T00:33:39;102839.22;;;-0.19;67.71
78016;BME280;67223;51.102;5.882;2023-03-01T00:36:05;102840.06;;;-0.08;67.55
78016;BME280;67223;51.102;5.882;2023-03-01T00:38:34;102830.53;;;-0.29;68.16
78016;BME280;67223;51.102;5.882;2023-03-01T00:41:08;102834.84;;;-0.19;68.25
78016;BME280;67223;51.102;5.882;2023-03-01T00:43:34;102832.22;;;-0.19;68.15
78016;BME280;67223;51.102;5.882;2023-03-01T00:46:12;102832.19;;;-0.05;68.01
78016;BME280;67223;51.102;5.882;2023-03-01T00:48:38;102828.69;;;-0.09;67.64
78016;BME280;67223;51.102;5.882;2023-03-01T00:51:09;102827.88;;;-0.15;67.63
78016;BME280;67223;51.102;5.882;2023-03-01T00:53:35;102827.84;;;-0.18;67.35
78016;BME280;67223;51.102;5.882;2023-03-01T00:56:01;102820.84;;;-0.18;67.49
78016;BME280;67223;51.102;5.882;2023-03-01T00:58:27;102821.75;;;-0.16;67.60
78016;BME280;67223;51.102;5.882;2023-03-01T01:00:53;102819.13;;;-0.20;66.95
78016;BME280;67223;51.102;5.882;2023-03-01T01:03:19;102808.63;;;-0.22;66.59
78016;BME280;67223;51.102;5.882;2023-03-01T01:05:44;102815.63;;;-0.24;66.95
78016;BME280;67223;51.102;5.882;2023-03-01T01:08:10;102817.44;;;-0.33;66.98
78016;BME280;67223;51.102;5.882;2023-03-01T01:10:35;102812.13;;;-0.23;66.69
78016;BME280;67223;51.102;5.882;2023-03-01T01:13:01;102819.16;;;-0.28;66.04
78016;BME280;67223;51.102;5.882;2023-03-01T01:15:26;102806.97;;;-0.35;65.93
78016;BME280;67223;51.102;5.882;2023-03-01T01:17:52;102804.28;;;-0.27;66.75
78016;BME280;67223;51.102;5.882;2023-03-01T01:20:18;102806.97;;;-0.38;66.40
78016;BME280;67223;51.102;5.882;2023-03-01T01:22:43;102799.13;;;-0.41;66.80
78016;BME280;67223;51.102;5.882;2023-03-01T01:25:09;102799.94;;;-0.33;66.16
78016;BME280;67223;51.102;5.882;2023-03-01T01:27:34;102803.50;;;-0.48;67.31
78016;BME280;67223;51.102;5.882;2023-03-01T01:30:00;102797.41;;;-0.54;66.96
78016;BME280;67223;51.102;5.882;2023-03-01T01:32:25;102791.31;;;-0.56;66.66
78016;BME280;67223;51.102;5.882;2023-03-01T01:34:51;102796.56;;;-0.62;68.10
78016;BME280;67223;51.102;5.882;2023-03-01T01:37:16;102787.81;;;-0.63;67.58
78016;BME280;67223;51.102;5.882;2023-03-01T01:39:41;102790.50;;;-0.70;68.65
78016;BME280;67223;51.102;5.882;2023-03-01T01:42:16;102782.59;;;-0.61;67.97
78016;BME280;67223;51.102;5.882;2023-03-01T01:44:42;102771.25;;;-0.72;67.74
78016;BME280;67223;51.102;5.882;2023-03-01T01:47:16;102765.97;;;-0.63;67.85
78016;BME280;67223;51.102;5.882;2023-03-01T01:49:56;102763.34;;;-0.69;67.40
78016;BME280;67223;51.102;5.882;2023-03-01T01:52:26;102762.50;;;-0.71;67.83
78016;BME280;67223;51.102;5.882;2023-03-01T01:55:02;102752.88;;;-0.74;67.83
78016;BME280;67223;51.102;5.882;2023-03-01T01:57:38;102747.69;;;-0.83;68.95
78016;BME280;67223;51.102;5.882;2023-03-01T02:00:11;102752.94;;;-0.81;68.93
78016;BME280;67223;51.102;5.882;2023-03-01T02:02:38;102755.56;;;-0.81;68.40
78016;BME280;67223;51.102;5.882;2023-03-01T02:07:52;102746.84;;;-0.94;68.75
78016;BME280;67223;51.102;5.882;2023-03-01T02:10:20;102740.72;;;-0.95;68.62
78016;BME280;67223;51.102;5.882;2023-03-01T02:12:46;102749.53;;;-1.05;69.86
78016;BME280;67223;51.102;5.882;2023-03-01T02:15:11;102743.44;;;-1.16;70.18
78016;BME280;67223;51.102;5.882;2023-03-01T02:17:37;102743.41;;;-1.11;68.81
78016;BME280;67223;51.102;5.882;2023-03-01T02:23:07;102725.88;;;-0.99;69.45
78016;BME280;67223;51.102;5.882;2023-03-01T02:25:37;102728.59;;;-1.15;70.09
78016;BME280;67223;51.102;5.882;2023-03-01T02:30:39;102725.06;;;-1.07;69.22
78016;BME280;67223;51.102;5.882;2023-03-01T02:33:26;102725.97;;;-1.26;69.94
78016;BME280;67223;51.102;5.882;2023-03-01T02:35:54;102733.84;;;-1.32;70.64
78016;BME280;67223;51.102;5.882;2023-03-01T02:38:20;102729.50;;;-1.42;71.79
78016;BME280;67223;51.102;5.882;2023-03-01T02:40:49;102732.97;;;-1.28;70.29
78016;BME280;67223;51.102;5.882;2023-03-01T02:43:16;102732.06;;;-1.16;70.87
78016;BME280;67223;51.102;5.882;2023-03-01T02:45:53;102732.97;;;-1.39;71.07
78016;BME280;67223;51.102;5.882;2023-03-01T02:48:22;102728.63;;;-1.35;70.55
78016;BME280;67223;51.102;5.882;2023-03-01T02:51:22;102727.75;;;-1.43;70.03
78016;BME280;67223;51.102;5.882;2023-03-01T02:54:06;102740.00;;;-1.41;71.40
78016;BME280;67223;51.102;5.882;2023-03-01T02:56:33;102737.38;;;-1.41;71.74
78016;BME280;67223;51.102;5.882;2023-03-01T02:58:59;102739.13;;;-1.46;71.88
78016;BME280;67223;51.102;5.882;2023-03-01T03:04:00;102743.50;;;-1.46;70.62
78016;BME280;67223;51.102;5.882;2023-03-01T03:06:26;102733.00;;;-1.40;71.83
78016;BME280;67223;51.102;5.882;2023-03-01T03:08:51;102739.09;;;-1.43;70.90
78016;BME280;67223;51.102;5.882;2023-03-01T03:11:17;102733.84;;;-1.31;70.50
78016;BME280;67223;51.102;5.882;2023-03-01T03:13:42;102729.44;;;-1.24;70.35
78016;BME280;67223;51.102;5.882;2023-03-01T03:16:13;102738.22;;;-1.31;70.68
78016;BME280;67223;51.102;5.882;2023-03-01T03:18:39;102732.97;;;-1.25;70.65
78016;BME280;67223;51.102;5.882;2023-03-01T03:21:08;102725.13;;;-1.31;71.05
78016;BME280;67223;51.102;5.882;2023-03-01T03:23:35;102724.25;;;-1.36;70.70
78016;BME280;67223;51.102;5.882;2023-03-01T03:26:02;102722.47;;;-1.34;71.21
78016;BME280;67223;51.102;5.882;2023-03-01T03:28:30;102720.75;;;-1.44;71.03
78016;BME280;67223;51.102;5.882;2023-03-01T03:30:56;102725.19;;;-1.60;71.88
78016;BME280;67223;51.102;5.882;2023-03-01T03:33:21;102726.91;;;-1.51;70.26
78016;BME280;67223;51.102;5.882;2023-03-01T03:35:48;102727.78;;;-1.52;71.76
78016;BME280;67223;51.102;5.882;2023-03-01T03:38:16;102728.66;;;-1.68;71.00
78016;BME280;67223;51.102;5.882;2023-03-01T03:41:11;102729.53;;;-1.73;71.47
78016;BME280;67223;51.102;5.882;2023-03-01T03:43:38;102720.81;;;-1.84;72.10
78016;BME280;67223;51.102;5.882;2023-03-01T03:46:04;102730.41;;;-1.84;73.05
78016;BME280;67223;51.102;5.882;2023-03-01T03:48:33;102723.44;;;-1.85;72.95
78016;BME280;67223;51.102;5.882;2023-03-01T03:50:58;102717.31;;;-1.83;72.61
78016;BME280;67223;51.102;5.882;2023-03-01T03:53:25;102714.72;;;-1.80;72.18
78016;BME280;67223;51.102;5.882;2023-03-01T03:55:51;102712.97;;;-1.87;72.22
78016;BME280;67223;51.102;5.882;2023-03-01T03:58:18;102712.97;;;-1.75;72.66
78016;BME280;67223;51.102;5.882;2023-03-01T04:00:46;102715.56;;;-1.61;72.88
78016;BME280;67223;51.102;5.882;2023-03-01T04:03:13;102717.31;;;-1.78;70.88
78016;BME280;67223;51.102;5.882;2023-03-01T04:05:40;102717.31;;;-1.67;71.32
78016;BME280;67223;51.102;5.882;2023-03-01T04:08:06;102709.44;;;-1.69;72.14
78016;BME280;67223;51.102;5.882;2023-03-01T04:10:40;102716.44;;;-1.79;71.60
78016;BME280;67223;51.102;5.882;2023-03-01T04:13:10;102714.69;;;-1.74;71.66
78016;BME280;67223;51.102;5.882;2023-03-01T04:15:36;102703.34;;;-1.76;72.02
78016;BME280;67223;51.102;5.882;2023-03-01T04:18:03;102702.47;;;-1.78;72.34
78016;BME280;67223;51.102;5.882;2023-03-01T04:20:31;102696.34;;;-1.74;71.79
78016;BME280;67223;51.102;5.882;2023-03-01T04:23:07;102690.22;;;-1.59;72.40
78016;BME280;67223;51.102;5.882;2023-03-01T04:25:38;102685.88;;;-1.61;71.50
78016;BME280;67223;51.102;5.882;2023-03-01T04:28:04;102692.88;;;-1.69;73.32
78016;BME280;67223;51.102;5.882;2023-03-01T04:30:29;102680.66;;;-1.77;73.24
78016;BME280;67223;51.102;5.882;2023-03-01T04:32:54;102675.41;;;-1.66;73.24
78016;BME280;67223;51.102;5.882;2023-03-01T04:35:20;102678.03;;;-1.77;72.49
78016;BME280;67223;51.102;5.882;2023-03-01T04:37:45;102684.16;;;-1.96;72.51
78016;BME280;67223;51.102;5.882;2023-03-01T04:40:11;102678.06;;;-2.07;73.83
78016;BME280;67223;51.102;5.882;2023-03-01T04:42:42;102666.72;;;-2.10;74.54
78016;BME280;67223;51.102;5.882;2023-03-01T04:45:08;102667.59;;;-1.96;74.70
78016;BME280;67223;51.102;5.882;2023-03-01T04:47:39;102661.47;;;-1.97;73.56
78016;BME280;67223;51.102;5.882;2023-03-01T04:50:05;102667.59;;;-1.90;74.44
78016;BME280;67223;51.102;5.882;2023-03-01T04:52:31;102665.84;;;-1.94;74.27
78016;BME280;67223;51.102;5.882;2023-03-01T04:54:57;102664.09;;;-1.92;74.17
78016;BME280;67223;51.102;5.882;2023-03-01T04:57:22;102669.34;;;-2.00;73.00
78016;BME280;67223;51.102;5.882;2023-03-01T04:59:47;102658.84;;;-2.03;74.10
78016;BME280;67223;51.102;5.882;2023-03-01T05:02:13;102664.09;;;-2.06;73.05
78016;BME280;67223;51.102;5.882;2023-03-01T05:04:38;102663.22;;;-2.02;73.11
78016;BME280;67223;51.102;5.882;2023-03-01T05:07:03;102657.97;;;-2.14;73.62
78016;BME280;67223;51.102;5.882;2023-03-01T05:09:29;102662.34;;;-2.02;73.58
78016;BME280;67223;51.102;5.882;2023-03-01T05:11:54;102666.72;;;-2.03;74.03
78016;BME280;67223;51.102;5.882;2023-03-01T05:14:20;102664.97;;;-1.99;74.84
78016;BME280;67223;51.102;5.882;2023-03-01T05:16:45;102669.34;;;-2.01;73.98
78016;BME280;67223;51.102;5.882;2023-03-01T05:19:10;102668.44;;;-1.99;74.79
78016;BME280;67223;51.102;5.882;2023-03-01T05:21:41;102671.09;;;-1.96;74.77
78016;BME280;67223;51.102;5.882;2023-03-01T05:24:26;102670.19;;;-1.98;75.89
78016;BME280;67223;51.102;5.882;2023-03-01T05:26:52;102668.47;;;-1.91;74.05
78016;BME280;67223;51.102;5.882;2023-03-01T05:29:18;102666.69;;;-1.98;73.51
78016;BME280;67223;51.102;5.882;2023-03-01T05:31:51;102657.97;;;-2.08;74.56
78016;BME280;67223;51.102;5.882;2023-03-01T05:34:17;102664.09;;;-2.03;73.72
78016;BME280;67223;51.102;5.882;2023-03-01T05:36:42;102662.34;;;-1.93;74.14
78016;BME280;67223;51.102;5.882;2023-03-01T05:39:07;102664.97;;;-2.01;74.63
78016;BME280;67223;51.102;5.882;2023-03-01T05:41:33;102665.84;;;-2.03;73.87
78016;BME280;67223;51.102;5.882;2023-03-01T05:43:58;102658.00;;;-1.96;74.27
78016;BME280;67223;51.102;5.882;2023-03-01T05:46:24;102656.25;;;-2.04;75.12
78016;BME280;67223;51.102;5.882;2023-03-01T05:48:49;102662.34;;;-2.11;75.48
78016;BME280;67223;51.102;5.882;2023-03-01T05:51:14;102651.91;;;-2.21;74.63
78016;BME280;67223;51.102;5.882;2023-03-01T05:53:40;102652.75;;;-2.08;75.99
78016;BME280;67223;51.102;5.882;2023-03-01T05:56:05;102651.91;;;-2.05;73.91
78016;BME280;67223;51.102;5.882;2023-03-01T05:58:31;102651.91;;;-2.05;73.86
78016;BME280;67223;51.102;5.882;2023-03-01T06:00:57;102638.78;;;-2.04;73.09
78016;BME280;67223;51.102;5.882;2023-03-01T06:03:23;102643.16;;;-2.03;72.87
78016;BME280;67223;51.102;5.882;2023-03-01T06:05:48;102640.53;;;-2.03;73.91
78016;BME280;67223;51.102;5.882;2023-03-01T06:08:13;102634.44;;;-2.06;72.13
78016;BME280;67223;51.102;5.882;2023-03-01T06:10:39;102640.53;;;-2.06;72.83
78016;BME280;67223;51.102;5.882;2023-03-01T06:13:05;102634.41;;;-2.14;73.23
78016;BME280;67223;51.102;5.882;2023-03-01T06:15:31;102636.16;;;-2.08;72.52
78016;BME280;67223;51.102;5.882;2023-03-01T06:17:56;102640.53;;;-2.18;73.12
78016;BME280;67223;51.102;5.882;2023-03-01T06:20:24;102644.91;;;-2.19;73.86
78016;BME280;67223;51.102;5.882;2023-03-01T06:22:50;102655.38;;;-2.19;73.01
78016;BME280;67223;51.102;5.882;2023-03-01T06:25:19;102650.16;;;-2.26;73.25
78016;BME280;67223;51.102;5.882;2023-03-01T06:27:45;102652.75;;;-2.28;73.28
78016;BME280;67223;51.102;5.882;2023-03-01T06:30:13;102646.63;;;-2.33;73.48
78016;BME280;67223;51.102;5.882;2023-03-01T06:32:41;102653.63;;;-2.41;74.08
78016;BME280;67223;51.102;5.882;2023-03-01T06:35:14;102653.63;;;-2.29;73.97
78016;BME280;67223;51.102;5.882;2023-03-01T06:37:40;102655.38;;;-2.35;74.14
78016;BME280;67223;51.102;5.882;2023-03-01T06:40:07;102655.38;;;-2.37;73.94
78016;BME280;67223;51.102;5.882;2023-03-01T06:42:34;102655.38;;;-2.29;73.82
78016;BME280;67223;51.102;5.882;2023-03-01T06:45:00;102663.19;;;-2.38;74.62
78016;BME280;67223;51.102;5.882;2023-03-01T06:47:25;102657.13;;;-2.14;75.43
78016;BME280;67223;51.102;5.882;2023-03-01T06:49:50;102651.88;;;-2.37;74.29
78016;BME280;67223;51.102;5.882;2023-03-01T06:52:16;102651.84;;;-2.43;74.05
78016;BME280;67223;51.102;5.882;2023-03-01T06:54:41;102652.75;;;-2.35;75.30
78016;BME280;67223;51.102;5.882;2023-03-01T06:57:07;102652.75;;;-2.38;74.52
78016;BME280;67223;51.102;5.882;2023-03-01T06:59:32;102657.97;;;-2.38;75.32
78016;BME280;67223;51.102;5.882;2023-03-01T07:01:57;102658.00;;;-2.29;74.64
78016;BME280;67223;51.102;5.882;2023-03-01T07:04:23;102648.38;;;-2.29;74.53
78016;BME280;67223;51.102;5.882;2023-03-01T07:06:48;102652.78;;;-2.25;75.56
78016;BME280;67223;51.102;5.882;2023-03-01T07:09:21;102657.97;;;-2.19;74.37
78016;BME280;67223;51.102;5.882;2023-03-01T07:11:47;102649.28;;;-2.10;75.04
78016;BME280;67223;51.102;5.882;2023-03-01T07:14:12;102649.25;;;-2.07;74.46
78016;BME280;67223;51.102;5.882;2023-03-01T07:16:38;102658.84;;;-2.09;73.90
78016;BME280;67223;51.102;5.882;2023-03-01T07:19:03;102657.09;;;-2.04;75.15
78016;BME280;67223;51.102;5.882;2023-03-01T07:21:30;102652.75;;;-2.00;73.16
78016;BME280;67223;51.102;5.882;2023-03-01T07:23:56;102651.00;;;-2.03;73.09
78016;BME280;67223;51.102;5.882;2023-03-01T07:26:21;102658.84;;;-1.97;74.23
78016;BME280;67223;51.102;5.882;2023-03-01T07:28:46;102650.13;;;-1.96;74.36
78016;BME280;67223;51.102;5.882;2023-03-01T07:31:12;102661.47;;;-1.88;73.02
78016;BME280;67223;51.102;5.882;2023-03-01T07:33:37;102660.59;;;-1.87;72.82
78016;BME280;67223;51.102;5.882;2023-03-01T07:36:03;102650.13;;;-1.76;73.58
78016;BME280;67223;51.102;5.882;2023-03-01T07:38:29;102646.59;;;-1.67;73.40
78016;BME280;67223;51.102;5.882;2023-03-01T07:41:03;102650.94;;;-1.51;72.63
78016;BME280;67223;51.102;5.882;2023-03-01T07:43:29;102648.28;;;-1.41;72.08
78016;BME280;67223;51.102;5.882;2023-03-01T07:45:58;102643.03;;;-1.41;71.73
78016;BME280;67223;51.102;5.882;2023-03-01T07:48:24;102643.00;;;-1.30;71.18
78016;BME280;67223;51.102;5.882;2023-03-01T07:50:49;102645.53;;;-1.09;70.78
78016;BME280;67223;51.102;5.882;2023-03-01T07:53:15;102648.00;;;-0.78;70.11
78016;BME280;67223;51.102;5.882;2023-03-01T07:55:40;102646.09;;;-0.54;68.77
78016;BME280;67223;51.102;5.882;2023-03-01T07:58:05;102648.50;;;-0.25;68.35
78016;BME280;67223;51.102;5.882;2023-03-01T08:00:31;102642.16;;;0.04;67.21
78016;BME280;67223;51.102;5.882;2023-03-01T08:02:59;102652.38;;;0.32;66.46
78016;BME280;67223;51.102;5.882;2023-03-01T08:05:25;102651.22;;;0.56;65.24
78016;BME280;67223;51.102;5.882;2023-03-01T08:07:50;102646.50;;;0.85;64.22
78016;BME280;67223;51.102;5.882;2023-03-01T08:10:15;102651.50;;;1.05;63.80
78016;BME280;67223;51.102;5.882;2023-03-01T08:12:41;102647.13;;;1.06;62.97
78016;BME280;67223;51.102;5.882;2023-03-01T08:15:07;102652.84;;;1.37;63.98
78016;BME280;67223;51.102;5.882;2023-03-01T08:17:33;102648.06;;;1.63;61.24
78016;BME280;67223;51.102;5.882;2023-03-01T08:19:58;102652.69;;;2.01;60.87
78016;BME280;67223;51.102;5.882;2023-03-01T08:22:23;102647.66;;;2.38;60.36
78016;BME280;67223;51.102;5.882;2023-03-01T08:24:49;102644.94;;;2.42;58.86
78016;BME280;67223;51.102;5.882;2023-03-01T08:27:15;102641.44;;;2.85;57.21
78016;BME280;67223;51.102;5.882;2023-03-01T08:29:41;102644.53;;;3.05;56.58
78016;BME280;67223;51.102;5.882;2023-03-01T08:32:07;102634.97;;;3.76;55.29
78016;BME280;67223;51.102;5.882;2023-03-01T08:34:32;102635.44;;;3.57;54.77
78016;BME280;67223;51.102;5.882;2023-03-01T08:37:00;102628.81;;;3.39;55.45
78016;BME280;67223;51.102;5.882;2023-03-01T08:39:26;102624.34;;;4.13;53.86
78016;BME280;67223;51.102;5.882;2023-03-01T08:41:51;102623.66;;;4.70;53.04
78016;BME280;67223;51.102;5.882;2023-03-01T08:44:17;102623.91;;;4.61;52.34
78016;BME280;67223;51.102;5.882;2023-03-01T08:46:43;102629.03;;;4.67;51.60
78016;BME280;67223;51.102;5.882;2023-03-01T08:49:12;102621.13;;;4.96;50.33
78016;BME280;67223;51.102;5.882;2023-03-01T08:51:38;102619.28;;;4.98;50.20
78016;BME280;67223;51.102;5.882;2023-03-01T08:54:11;102618.94;;;5.38;49.28
78016;BME280;67223;51.102;5.882;2023-03-01T08:56:37;102610.66;;;5.49;47.86
78016;BME280;67223;51.102;5.882;2023-03-01T08:59:03;102618.91;;;5.40;49.06
78016;BME280;67223;51.102;5.882;2023-03-01T09:01:28;102620.44;;;5.73;48.64
78016;BME280;67223;51.102;5.882;2023-03-01T09:03:54;102620.72;;;6.43;47.01
78016;BME280;67223;51.102;5.882;2023-03-01T09:06:19;102622.06;;;6.79;45.52
78016;BME280;67223;51.102;5.882;2023-03-01T09:08:47;102621.13;;;6.57;45.99
78016;BME280;67223;51.102;5.882;2023-03-01T09:11:15;102605.44;;;6.74;44.81
78016;BME280;67223;51.102;5.882;2023-03-01T09:13:42;102604.13;;;7.31;44.81
78016;BME280;67223;51.102;5.882;2023-03-01T09:16:08;102609.69;;;6.78;44.24
78016;BME280;67223;51.102;5.882;2023-03-01T09:18:35;102605.53;;;6.95;43.28
78016;BME280;67223;51.102;5.882;2023-03-01T09:21:14;102612.56;;;7.62;43.05
78016;BME280;67223;51.102;5.882;2023-03-01T09:23:46;102602.13;;;7.58;42.82
78016;BME280;67223;51.102;5.882;2023-03-01T09:26:14;102598.00;;;7.93;42.22
78016;BME280;67223;51.102;5.882;2023-03-01T09:28:42;102600.19;;;7.41;42.04
78016;BME280;67223;51.102;5.882;2023-03-01T09:31:09;102599.56;;;7.56;41.64
78016;BME280;67223;51.102;5.882;2023-03-01T09:33:38;102596.50;;;8.48;39.77
78016;BME280;67223;51.102;5.882;2023-03-01T09:36:06;102592.31;;;8.42;39.83
78016;BME280;67223;51.102;5.882;2023-03-01T09:38:33;102599.56;;;8.59;39.72
78016;BME280;67223;51.102;5.882;2023-03-01T09:41:00;102603.72;;;8.85;39.07
78016;BME280;67223;51.102;5.882;2023-03-01T09:46:03;102591.31;;;8.84;38.60
78016;BME280;67223;51.102;5.882;2023-03-01T09:48:55;102593.97;;;8.65;38.80
78016;BME280;67223;51.102;5.882;2023-03-01T09:51:23;102585.13;;;9.39;38.19
78016;BME280;67223;51.102;5.882;2023-03-01T09:53:51;102579.44;;;8.72;37.97
78016;BME280;67223;51.102;5.882;2023-03-01T09:56:53;102577.41;;;9.33;37.38
78016;BME280;67223;51.102;5.882;2023-03-01T09:59:26;102590.22;;;9.44;36.01
78016;BME280;67223;51.102;5.882;2023-03-01T10:01:59;102579.63;;;9.06;37.56
78016;BME280;67223;51.102;5.882;2023-03-01T10:04:32;102581.31;;;9.07;36.69
78016;BME280;67223;51.102;5.882;2023-03-01T10:07:12;102583.72;;;8.95;37.12
78016;BME280;67223;51.102;5.882;2023-03-01T10:09:44;102570.16;;;9.18;36.77
78016;BME280;67223;51.102;5.882;2023-03-01T10:12:33;102577.34;;;9.35;36.31
78016;BME280;67223;51.102;5.882;2023-03-01T10:17:35;102565.41;;;10.12;35.71
78016;BME280;67223;51.102;5.882;2023-03-01T10:20:26;102564.00;;;9.88;36.36
78016;BME280;67223;51.102;5.882;2023-03-01T10:22:55;102558.28;;;10.63;34.96
78016;BME280;67223;51.102;5.882;2023-03-01T10:28:17;102552.69;;;10.34;34.07
78016;BME280;67223;51.102;5.882;2023-03-01T10:30:45;102547.28;;;10.52;33.47
78016;BME280;67223;51.102;5.882;2023-03-01T10:33:24;102528.47;;;11.02;33.28
78016;BME280;67223;51.102;5.882;2023-03-01T10:35:51;102528.78;;;11.43;32.21
78016;BME280;67223;51.102;5.882;2023-03-01T10:38:17;102523.03;;;11.50;32.43
78016;BME280;67223;51.102;5.882;2023-03-01T10:40:54;102528.84;;;10.96;33.33
78016;BME280;67223;51.102;5.882;2023-03-01T10:43:23;102514.63;;;11.41;31.50
78016;BME280;67223;51.102;5.882;2023-03-01T10:45:50;102519.75;;;10.67;33.03
78016;BME280;67223;51.102;5.882;2023-03-01T10:48:18;102517.16;;;10.50;34.36
78016;BME280;67223;51.102;5.882;2023-03-01T10:51:05;102511.56;;;11.33;32.39
78016;BME280;67223;51.102;5.882;2023-03-01T10:53:37;102507.72;;;11.52;33.20
78016;BME280;67223;51.102;5.882;2023-03-01T10:56:13;102506.97;;;12.24;34.25
78016;BME280;67223;51.102;5.882;2023-03-01T10:58:59;102503.19;;;11.69;31.87
78016;BME280;67223;51.102;5.882;2023-03-01T11:01:27;102504.91;;;11.85;32.53
78016;BME280;67223;51.102;5.882;2023-03-01T11:04:10;102500.59;;;11.37;31.82
78016;BME280;67223;51.102;5.882;2023-03-01T11:06:38;102498.81;;;11.52;31.25
78016;BME280;67223;51.102;5.882;2023-03-01T11:09:21;102495.91;;;11.71;31.73
78016;BME280;67223;51.102;5.882;2023-03-01T11:11:53;102495.16;;;11.39;32.69
78016;BME280;67223;51.102;5.882;2023-03-01T11:14:22;102495.91;;;11.71;31.31
78016;BME280;67223;51.102;5.882;2023-03-01T11:16:58;102506.81;;;11.68;30.82
78016;BME280;67223;51.102;5.882;2023-03-01T11:19:24;102501.25;;;13.00;30.51
78016;BME280;67223;51.102;5.882;2023-03-01T11:22:13;102489.63;;;12.01;31.24
78016;BME280;67223;51.102;5.882;2023-03-01T11:24:42;102495.75;;;12.03;30.36
78016;BME280;67223;51.102;5.882;2023-03-01T11:27:31;102488.88;;;12.14;30.20
78016;BME280;67223;51.102;5.882;2023-03-01T11:30:01;102480.81;;;11.85;30.67
78016;BME280;67223;51.102;5.882;2023-03-01T11:32:34;102473.75;;;12.55;30.17
78016;BME280;67223;51.102;5.882;2023-03-01T11:35:26;102479.28;;;12.66;29.22
78016;BME280;67223;51.102;5.882;2023-03-01T11:38:21;102487.22;;;12.11;31.02
78016;BME280;67223;51.102;5.882;2023-03-01T11:43:57;102474.41;;;12.02;29.89
78016;BME280;67223;51.102;5.882;2023-03-01T11:54:53;102475.84;;;12.22;29.98
78016;BME280;67223;51.102;5.882;2023-03-01T11:57:43;102476.31;;;12.57;30.51
78016;BME280;67223;51.102;5.882;2023-03-01T12:39:28;102413.00;;;10.50;34.99
78016;BME280;67223;51.102;5.882;2023-03-01T12:42:29;102408.91;;;9.94;34.79
78016;BME280;67223;51.102;5.882;2023-03-01T12:50:20;102399.53;;;10.03;33.94
78016;BME280;67223;51.102;5.882;2023-03-01T12:52:56;102399.72;;;9.32;34.43
78016;BME280;67223;51.102;5.882;2023-03-01T12:55:24;102390.09;;;8.77;34.49
78016;BME280;67223;51.102;5.882;2023-03-01T13:01:03;102387.00;;;9.55;34.40
78016;BME280;67223;51.102;5.882;2023-03-01T13:03:48;102384.66;;;9.48;34.40
78016;BME280;67223;51.102;5.882;2023-03-01T13:06:38;102383.25;;;9.07;33.05
78016;BME280;67223;51.102;5.882;2023-03-01T13:11:51;102373.94;;;9.16;34.35
78016;BME280;67223;51.102;5.882;2023-03-01T13:16:52;102369.78;;;9.10;36.74
78016;BME280;67223;51.102;5.882;2023-03-01T13:19:21;102369.00;;;8.91;36.92
78016;BME280;67223;51.102;5.882;2023-03-01T13:21:48;102374.28;;;8.74;37.76
78016;BME280;67223;51.102;5.882;2023-03-01T13:24:37;102362.75;;;8.37;37.18
78016;BME280;67223;51.102;5.882;2023-03-01T13:29:48;102368.03;;;8.75;38.03
78016;BME280;67223;51.102;5.882;2023-03-01T13:32:33;102359.66;;;8.46;37.91
78016;BME280;67223;51.102;5.882;2023-03-01T13:37:42;102355.63;;;8.74;36.66
78016;BME280;67223;51.102;5.882;2023-03-01T13:42:43;102336.63;;;8.27;37.42
78016;BME280;67223;51.102;5.882;2023-03-01T13:45:19;102334.66;;;8.32;36.50
78016;BME280;67223;51.102;5.882;2023-03-01T13:47:47;102331.94;;;8.86;36.98
78016;BME280;67223;51.102;5.882;2023-03-01T13:50:23;102324.34;;;8.05;35.95
78016;BME280;67223;51.102;5.882;2023-03-01T13:52:55;102321.97;;;7.99;37.16
78016;BME280;67223;51.102;5.882;2023-03-01T13:55:45;102315.50;;;8.05;37.05
78016;BME280;67223;51.102;5.882;2023-03-01T14:00:42;102313.06;;;7.82;34.79
78016;BME280;67223;51.102;5.882;2023-03-01T14:05:43;102305.84;;;7.84;35.16
78016;BME280;67223;51.102;5.882;2023-03-01T14:08:21;102293.91;;;7.92;36.20
78016;BME280;67223;51.102;5.882;2023-03-01T14:13:58;102294.78;;;8.11;36.31
78016;BME280;67223;51.102;5.882;2023-03-01T14:16:44;102291.34;;;7.91;36.33
78016;BME280;67223;51.102;5.882;2023-03-01T14:19:18;102299.03;;;7.97;37.81
78016;BME280;67223;51.102;5.882;2023-03-01T14:21:46;102293.53;;;7.62;38.79
78016;BME280;67223;51.102;5.882;2023-03-01T14:24:21;102282.28;;;7.76;39.40
78016;BME280;67223;51.102;5.882;2023-03-01T14:26:48;102291.16;;;8.12;38.37
78016;BME280;67223;51.102;5.882;2023-03-01T14:29:57;102287.59;;;7.76;36.94
78016;BME280;67223;51.102;5.882;2023-03-01T14:32:31;102280.50;;;7.76;37.20
78016;BME280;67223;51.102;5.882;2023-03-01T14:34:58;102279.41;;;7.81;37.50
78016;BME280;67223;51.102;5.882;2023-03-01T14:37:26;102280.25;;;7.62;37.66
78016;BME280;67223;51.102;5.882;2023-03-01T14:39:53;102277.25;;;7.51;38.14
78016;BME280;67223;51.102;5.882;2023-03-01T14:42:21;102279.81;;;7.53;38.11
78016;BME280;67223;51.102;5.882;2023-03-01T14:44:49;102283.28;;;7.55;38.21